Eagle Rock, MO

11:51 AM CDT on September 02, 2014 (GMT -0500)
Branson | Change Station
CLOSE
Current Station
Airport
Location: Branson,
Elevation: 1302 ft
Nearby Weather Stations
Active Advisory: Areal Flood Advisory Active Notice: Public Information Statement

Elev 1302 ft 36.53 °N, 93.20 °W | Updated 1 hour ago

Light Rain
Light Rain
64 °F
Feels Like 64 °F
N
13
Wind Variable Wind from South
Gusts 23 mph

Today
High -- | Low -- °F
--% Chance of Precip.
Yesterday
High -- | Low -- °F
Precip. -- in
6:47 AM 7:41 PM
First Quarter, 53% visible
Pressure 30.02 in
Visibility 10.0 miles
Clouds Few 3500 ft
Overcast 11000 ft
Dew Point 64 °F
Humidity 100%
Rainfall 1.09 in
Snow Depth Not available.
UV 2 out of 12
Pollen 7.10 out of 12
Air Quality Not available.
Flu Activity Not available.
METAR KBBG 021545Z 18011G20KT 10SM -RA FEW035 OVC110 18/18 A3002

More Conditions Fewer Conditions

Pressure 30.02 in
Visibility 10.0 miles
Clouds Few 3500 ft
Overcast 11000 ft
Dew Point 64 °F
Humidity 100%
Rainfall 1.09 in
Snow Depth Not available.
UV 2 out of 12
Pollen 7.10 out of 12
Air Quality Not available.
Flu Activity Not available.
METAR KBBG 021545Z 18011G20KT 10SM -RA FEW035 OVC110 18/18 A3002

More Conditions Fewer Conditions

10-Day Weather Forecast

Almanac

Astronomy

Sep. 02, 2014 Rise Set
Actual Time 6:47 AM CDT 7:41 PM CDT
Civil Twilight 6:20 AM CDT 8:07 PM CDT
Nautical Twilight 5:49 AM CDT 8:39 PM CDT
Astronomical Twilight 5:17 AM CDT 9:11 PM CDT
Moon 2:20 PM CDT No Moon Set
Length of Visible Light 13h 47m
Length of Day
12h 54m
Tomorrow will be 2m 15s shorter.
First Quarter, 53% of the Moon is Illuminated
Today
First Quarter
Sep 8
Full
Sep 15
Last Quarter
Sep 24
New
Oct 1
First Quarter

Today's Extremes

State Highs State Lows

Community

WunderPhotos

Upload Photos

1,749,716 photos uploaded!

WunderBlogs® & News

Nearby

Snow Depth

Station Depth Elevation
No new snow has been reported.

Earthquake Activity

City Distance Mag. Time & Date
No recent earthquake activity has been reported nearby.
Minimum magnitude displayed is 2.5.

Coastal Water Temperatures

Place Temperature
No Stations Reporting

Nearby Weather Stations